Home   Weather   Netherlands   Zoetermeer   Past weeks
Flag for Netherlands

Past Weather in Zoetermeer, Netherlands — Yesterday and Last 2 Weeks

Currently: 55 °F. Clear. (Weather station: Rotterdam Zestienhoven Airport, Netherlands). See more current weather

Past Weather in Zoetermeer — Graph

°F

Zoetermeer Temperature Yesterday

Maximum temperature yesterday: 54 °F (at 3:25 pm)
Minimum temperature yesterday: 43 °F (at 12:55 am)
Average temperature yesterday: 48 °F

High & Low Weather Summary for the Past Weeks

 TemperatureHumidityPressure
High55 °F (Feb 22, 3:25 pm)100% (Feb 18, 1:55 pm)30.48 "Hg (Feb 18, 1:55 pm)
Low36 °F (Feb 27, 10:25 pm)58% (Mar 2, 12:55 pm)28.71 "Hg (Feb 22, 5:55 pm)
Average46 °F85%29.76 "Hg
* Reported Feb 17 11:25 am — Mar 3 11:55 am, Zoetermeer. Weather by CustomWeather, © 2024

Note: Actual official high and low records may vary slightly from our data, if they occured in-between our weather recording intervals... More about our weather records

Zoetermeer Weather History for the Previous 24 Hours

Scroll right to see more
 ConditionsComfort  
Time TempWeatherWind HumidityBarometerVisibility
11:55 am
Sun, Mar 3
54 °FClear.3 mph72%29.53 "HgN/A
11:25 am52 °FClear.5 mph77%29.53 "HgN/A
10:55 am52 °FPassing clouds.6 mph77%29.53 "HgN/A
10:25 am50 °FClear.1 mph82%29.53 "HgN/A
9:55 am48 °FClear.2 mph94%29.53 "HgN/A
8:55 am46 °FClear.1 mph93%29.50 "Hg3 mi
8:25 am45 °FBroken clouds.No wind100%29.50 "Hg3 mi
7:55 am45 °FScattered clouds.1 mph93%29.50 "Hg3 mi
7:25 am45 °FPassing clouds.No wind93%29.50 "Hg3 mi
6:55 am45 °FFog.1 mph93%29.47 "Hg2 mi
6:25 am45 °FFog.1 mph93%29.47 "Hg3 mi
5:55 am43 °FClear.3 mph100%29.47 "Hg3 mi
5:25 am45 °FFog.1 mph100%29.45 "Hg3 mi
4:55 am45 °FFog.No wind100%29.45 "Hg3 mi
4:25 am45 °FClear.1 mph93%29.45 "Hg4 mi
3:55 am45 °FClear.No wind100%29.45 "Hg4 mi
2:55 am50 °FPassing clouds.7 mph76%29.45 "HgN/A
1:55 am52 °FOvercast.9 mph72%29.45 "HgN/A
1:25 am52 °FOvercast.12 mph72%29.45 "HgN/A
12:55 am52 °FPassing clouds.12 mph72%29.45 "HgN/A
12:25 am52 °FClear.13 mph72%29.45 "HgN/A
11:55 pm
Sat, Mar 2
52 °FOvercast.12 mph72%29.45 "HgN/A
11:25 pm52 °FClear.14 mph72%29.45 "HgN/A
10:55 pm52 °FClear.13 mph72%29.45 "HgN/A
10:25 pm52 °FClear.12 mph67%29.45 "HgN/A
9:55 pm52 °FClear.12 mph67%29.45 "HgN/A
9:25 pm52 °FClear.8 mph67%29.45 "HgN/A
8:55 pm52 °FClear.9 mph67%29.45 "HgN/A
8:25 pm54 °FPartly cloudy.14 mph63%29.45 "HgN/A
7:55 pm54 °FPassing clouds.14 mph63%29.45 "HgN/A
6:55 pm52 °FPartly cloudy.8 mph67%29.45 "HgN/A
6:25 pm52 °FDrizzle. Mostly cloudy.8 mph67%29.45 "HgN/A
5:55 pm54 °FMostly cloudy.8 mph58%29.45 "HgN/A
5:25 pm54 °FScattered clouds.12 mph58%29.45 "HgN/A
4:55 pm54 °FClear.16 mph58%29.45 "HgN/A
4:25 pm54 °FPassing clouds.13 mph58%29.45 "HgN/A
3:55 pm54 °FClear.15 mph58%29.45 "HgN/A
3:25 pm54 °FClear.16 mph58%29.45 "HgN/A
2:55 pm52 °FPartly sunny.13 mph62%29.47 "HgN/A
2:25 pm52 °FPassing clouds.16 mph58%29.47 "HgN/A
1:55 pm52 °FPassing clouds.18 mph58%29.47 "HgN/A
1:25 pm52 °FPassing clouds.16 mph62%29.47 "HgN/A
Weather by CustomWeather, © 2024

See weather overview